sensor_id;sensor_type;location;lat;lon;timestamp;temperature;humidity
530;DHT22;251;48.704;9.210;2022-12-17T00:00:10;-3.60;56.00
530;DHT22;251;48.704;9.210;2022-12-17T00:02:58;-3.50;55.60
530;DHT22;251;48.704;9.210;2022-12-17T00:05:43;-3.70;55.00
530;DHT22;251;48.704;9.210;2022-12-17T00:08:29;-4.00;54.60
530;DHT22;251;48.704;9.210;2022-12-17T00:11:13;-4.00;55.40
530;DHT22;251;48.704;9.210;2022-12-17T00:13:58;-4.20;55.40
530;DHT22;251;48.704;9.210;2022-12-17T00:16:42;-4.20;54.30
530;DHT22;251;48.704;9.210;2022-12-17T00:19:26;-4.40;54.20
530;DHT22;251;48.704;9.210;2022-12-17T00:22:11;-4.60;53.90
530;DHT22;251;48.704;9.210;2022-12-17T00:24:57;-4.50;54.10
530;DHT22;251;48.704;9.210;2022-12-17T00:27:41;-4.90;53.80
530;DHT22;251;48.704;9.210;2022-12-17T00:30:25;-4.80;53.30
530;DHT22;251;48.704;9.210;2022-12-17T00:33:11;-4.90;53.60
530;DHT22;251;48.704;9.210;2022-12-17T00:35:55;-5.10;52.70
530;DHT22;251;48.704;9.210;2022-12-17T00:38:40;-5.10;53.20
530;DHT22;251;48.704;9.210;2022-12-17T00:41:26;-5.50;53.40
530;DHT22;251;48.704;9.210;2022-12-17T00:44:11;-5.40;53.60
530;DHT22;251;48.704;9.210;2022-12-17T00:46:55;-5.50;55.20
530;DHT22;251;48.704;9.210;2022-12-17T00:49:39;-5.20;56.00
530;DHT22;251;48.704;9.210;2022-12-17T00:52:24;-5.60;55.70
530;DHT22;251;48.704;9.210;2022-12-17T00:55:09;-5.40;54.50
530;DHT22;251;48.704;9.210;2022-12-17T00:57:55;-5.50;53.70
530;DHT22;251;48.704;9.210;2022-12-17T01:00:40;-5.60;53.50
530;DHT22;251;48.704;9.210;2022-12-17T01:03:25;-5.60;54.00
530;DHT22;251;48.704;9.210;2022-12-17T01:06:06;-5.80;54.50
530;DHT22;251;48.704;9.210;2022-12-17T01:08:50;-5.80;54.30
530;DHT22;251;48.704;9.210;2022-12-17T01:11:35;-5.80;53.80
530;DHT22;251;48.704;9.210;2022-12-17T01:14:21;-5.80;53.70
530;DHT22;251;48.704;9.210;2022-12-17T01:17:07;-6.20;53.00
530;DHT22;251;48.704;9.210;2022-12-17T01:20:04;-6.40;53.30
530;DHT22;251;48.704;9.210;2022-12-17T01:22:48;-6.10;53.50
530;DHT22;251;48.704;9.210;2022-12-17T01:25:32;-6.40;54.30
530;DHT22;251;48.704;9.210;2022-12-17T01:28:21;-6.10;53.60
530;DHT22;251;48.704;9.210;2022-12-17T01:31:07;-6.60;53.40
530;DHT22;251;48.704;9.210;2022-12-17T01:33:51;-6.60;53.30
530;DHT22;251;48.704;9.210;2022-12-17T01:36:35;-6.30;54.00
530;DHT22;251;48.704;9.210;2022-12-17T01:39:20;-6.30;53.20
530;DHT22;251;48.704;9.210;2022-12-17T01:42:04;-6.40;53.90
530;DHT22;251;48.704;9.210;2022-12-17T01:44:52;-6.40;53.20
530;DHT22;251;48.704;9.210;2022-12-17T01:47:40;-6.70;52.70
530;DHT22;251;48.704;9.210;2022-12-17T01:50:28;-6.50;53.20
530;DHT22;251;48.704;9.210;2022-12-17T01:53:15;-6.90;53.20
530;DHT22;251;48.704;9.210;2022-12-17T01:56:03;-6.60;53.00
530;DHT22;251;48.704;9.210;2022-12-17T01:58:48;-6.80;52.90
530;DHT22;251;48.704;9.210;2022-12-17T02:01:33;-6.60;52.60
530;DHT22;251;48.704;9.210;2022-12-17T02:04:19;-6.80;52.40
530;DHT22;251;48.704;9.210;2022-12-17T02:07:16;-6.90;52.70
530;DHT22;251;48.704;9.210;2022-12-17T02:10:09;-6.80;52.30
530;DHT22;251;48.704;9.210;2022-12-17T02:13:03;-7.00;51.60
530;DHT22;251;48.704;9.210;2022-12-17T02:15:52;-7.30;51.40
530;DHT22;251;48.704;9.210;2022-12-17T02:18:41;-7.00;52.10
530;DHT22;251;48.704;9.210;2022-12-17T02:21:30;-7.20;52.30
530;DHT22;251;48.704;9.210;2022-12-17T02:24:36;-7.30;53.10
530;DHT22;251;48.704;9.210;2022-12-17T02:27:24;-7.40;52.50
530;DHT22;251;48.704;9.210;2022-12-17T02:30:09;-7.50;51.00
530;DHT22;251;48.704;9.210;2022-12-17T02:32:54;-7.40;51.30
530;DHT22;251;48.704;9.210;2022-12-17T02:35:44;-7.30;51.40
530;DHT22;251;48.704;9.210;2022-12-17T02:38:32;-7.40;51.50
530;DHT22;251;48.704;9.210;2022-12-17T02:41:18;-7.70;51.70
530;DHT22;251;48.704;9.210;2022-12-17T02:44:08;-7.50;51.70
530;DHT22;251;48.704;9.210;2022-12-17T02:46:56;-7.90;51.50
530;DHT22;251;48.704;9.210;2022-12-17T02:49:42;-7.80;51.40
530;DHT22;251;48.704;9.210;2022-12-17T02:52:27;-8.10;50.80
530;DHT22;251;48.704;9.210;2022-12-17T02:55:11;-8.00;51.50
530;DHT22;251;48.704;9.210;2022-12-17T02:57:56;-8.00;52.20
530;DHT22;251;48.704;9.210;2022-12-17T03:00:42;-8.00;51.50
530;DHT22;251;48.704;9.210;2022-12-17T03:03:26;-7.80;51.90
530;DHT22;251;48.704;9.210;2022-12-17T03:06:10;-8.00;51.70
530;DHT22;251;48.704;9.210;2022-12-17T03:08:55;-8.00;51.50
530;DHT22;251;48.704;9.210;2022-12-17T03:11:39;-8.00;51.90
530;DHT22;251;48.704;9.210;2022-12-17T03:14:23;-8.10;51.80
530;DHT22;251;48.704;9.210;2022-12-17T03:17:09;-8.10;51.50
530;DHT22;251;48.704;9.210;2022-12-17T03:19:54;-8.20;51.40
530;DHT22;251;48.704;9.210;2022-12-17T03:22:38;-8.20;51.10
530;DHT22;251;48.704;9.210;2022-12-17T03:25:22;-8.10;51.10
530;DHT22;251;48.704;9.210;2022-12-17T03:28:09;-8.20;51.80
530;DHT22;251;48.704;9.210;2022-12-17T03:30:56;-8.20;52.10
530;DHT22;251;48.704;9.210;2022-12-17T03:33:42;-8.00;51.40
530;DHT22;251;48.704;9.210;2022-12-17T03:36:26;-8.30;51.30
530;DHT22;251;48.704;9.210;2022-12-17T03:39:10;-8.30;51.70
530;DHT22;251;48.704;9.210;2022-12-17T03:41:54;-8.10;52.20
530;DHT22;251;48.704;9.210;2022-12-17T03:44:38;-8.40;51.90
530;DHT22;251;48.704;9.210;2022-12-17T03:47:22;-8.20;51.40
530;DHT22;251;48.704;9.210;2022-12-17T03:50:09;-8.40;51.30
530;DHT22;251;48.704;9.210;2022-12-17T03:52:53;-8.50;52.30
530;DHT22;251;48.704;9.210;2022-12-17T03:55:37;-8.20;52.80
530;DHT22;251;48.704;9.210;2022-12-17T03:58:21;-8.50;52.60
530;DHT22;251;48.704;9.210;2022-12-17T04:01:06;-8.30;52.70
530;DHT22;251;48.704;9.210;2022-12-17T04:03:50;-8.30;52.70
530;DHT22;251;48.704;9.210;2022-12-17T04:06:36;-8.30;53.40
530;DHT22;251;48.704;9.210;2022-12-17T04:09:20;-8.20;54.50
530;DHT22;251;48.704;9.210;2022-12-17T04:12:07;-8.50;56.00
530;DHT22;251;48.704;9.210;2022-12-17T04:14:51;-8.30;55.90
530;DHT22;251;48.704;9.210;2022-12-17T04:17:36;-8.30;55.00
530;DHT22;251;48.704;9.210;2022-12-17T04:20:20;-8.20;54.60
530;DHT22;251;48.704;9.210;2022-12-17T04:23:06;-7.90;55.20
530;DHT22;251;48.704;9.210;2022-12-17T04:25:50;-8.10;55.10
530;DHT22;251;48.704;9.210;2022-12-17T04:28:39;-8.20;55.70
530;DHT22;251;48.704;9.210;2022-12-17T04:31:25;-8.10;56.30
530;DHT22;251;48.704;9.210;2022-12-17T04:34:09;-8.00;57.00
530;DHT22;251;48.704;9.210;2022-12-17T04:36:53;-7.90;57.60
530;DHT22;251;48.704;9.210;2022-12-17T04:39:39;-7.90;58.30
530;DHT22;251;48.704;9.210;2022-12-17T04:42:23;-7.50;59.30
530;DHT22;251;48.704;9.210;2022-12-17T04:45:13;-7.50;59.50
530;DHT22;251;48.704;9.210;2022-12-17T04:48:02;-7.60;59.70
530;DHT22;251;48.704;9.210;2022-12-17T04:50:46;-7.50;60.60
530;DHT22;251;48.704;9.210;2022-12-17T04:53:39;-7.60;60.80
530;DHT22;251;48.704;9.210;2022-12-17T04:56:24;-7.20;60.80
530;DHT22;251;48.704;9.210;2022-12-17T04:59:09;-7.40;60.30
530;DHT22;251;48.704;9.210;2022-12-17T05:01:53;-7.30;60.70
530;DHT22;251;48.704;9.210;2022-12-17T05:04:37;-7.20;60.90
530;DHT22;251;48.704;9.210;2022-12-17T05:07:22;-6.90;61.90
530;DHT22;251;48.704;9.210;2022-12-17T05:10:07;-7.10;61.90
530;DHT22;251;48.704;9.210;2022-12-17T05:12:56;-7.10;61.10
530;DHT22;251;48.704;9.210;2022-12-17T05:15:41;-7.00;61.40
530;DHT22;251;48.704;9.210;2022-12-17T05:18:25;-6.90;61.80
530;DHT22;251;48.704;9.210;2022-12-17T05:21:09;-6.90;62.80
530;DHT22;251;48.704;9.210;2022-12-17T05:23:54;-6.40;63.10
530;DHT22;251;48.704;9.210;2022-12-17T05:26:38;-6.50;63.70
530;DHT22;251;48.704;9.210;2022-12-17T05:29:24;-6.30;63.80
530;DHT22;251;48.704;9.210;2022-12-17T05:32:08;-6.50;62.90
530;DHT22;251;48.704;9.210;2022-12-17T05:34:53;-6.60;63.30
530;DHT22;251;48.704;9.210;2022-12-17T05:37:37;-6.30;64.10
530;DHT22;251;48.704;9.210;2022-12-17T05:40:21;-6.50;63.50
530;DHT22;251;48.704;9.210;2022-12-17T05:43:09;-6.50;63.70
530;DHT22;251;48.704;9.210;2022-12-17T05:45:58;-6.40;64.10
530;DHT22;251;48.704;9.210;2022-12-17T05:48:42;-6.10;64.70
530;DHT22;251;48.704;9.210;2022-12-17T05:51:27;-6.10;64.80
530;DHT22;251;48.704;9.210;2022-12-17T05:54:11;-5.90;65.00
530;DHT22;251;48.704;9.210;2022-12-17T05:56:56;-5.80;65.00
530;DHT22;251;48.704;9.210;2022-12-17T05:59:40;-5.80;65.10
530;DHT22;251;48.704;9.210;2022-12-17T06:02:26;-6.00;65.10
530;DHT22;251;48.704;9.210;2022-12-17T06:05:10;-6.00;65.80
530;DHT22;251;48.704;9.210;2022-12-17T06:08:01;-5.70;66.50
530;DHT22;251;48.704;9.210;2022-12-17T06:10:46;-5.90;66.20
530;DHT22;251;48.704;9.210;2022-12-17T06:13:30;-5.60;66.60
530;DHT22;251;48.704;9.210;2022-12-17T06:16:14;-5.80;67.30
530;DHT22;251;48.704;9.210;2022-12-17T06:19:00;-5.40;67.60
530;DHT22;251;48.704;9.210;2022-12-17T06:21:45;-5.50;68.50
530;DHT22;251;48.704;9.210;2022-12-17T06:24:29;-5.50;68.80
530;DHT22;251;48.704;9.210;2022-12-17T06:27:14;-5.40;69.00
530;DHT22;251;48.704;9.210;2022-12-17T06:29:58;-5.30;70.10
530;DHT22;251;48.704;9.210;2022-12-17T06:32:42;-5.40;70.90
530;DHT22;251;48.704;9.210;2022-12-17T06:35:27;-5.40;71.90
530;DHT22;251;48.704;9.210;2022-12-17T06:38:11;-5.20;73.00
530;DHT22;251;48.704;9.210;2022-12-17T06:41:01;-5.10;74.20
530;DHT22;251;48.704;9.210;2022-12-17T06:43:45;-5.30;75.40
530;DHT22;251;48.704;9.210;2022-12-17T06:46:29;-5.20;76.30
530;DHT22;251;48.704;9.210;2022-12-17T06:49:14;-5.00;76.70
530;DHT22;251;48.704;9.210;2022-12-17T06:52:00;-4.90;77.00
530;DHT22;251;48.704;9.210;2022-12-17T06:54:55;-4.90;77.10
530;DHT22;251;48.704;9.210;2022-12-17T06:57:40;-4.90;76.80
530;DHT22;251;48.704;9.210;2022-12-17T07:00:24;-5.00;76.30
530;DHT22;251;48.704;9.210;2022-12-17T07:03:09;-5.00;76.40
530;DHT22;251;48.704;9.210;2022-12-17T07:05:54;-4.90;77.40
530;DHT22;251;48.704;9.210;2022-12-17T07:08:40;-4.90;78.40
530;DHT22;251;48.704;9.210;2022-12-17T07:11:24;-5.00;78.60
530;DHT22;251;48.704;9.210;2022-12-17T07:14:09;-4.70;79.00
530;DHT22;251;48.704;9.210;2022-12-17T07:16:53;-4.70;77.90
530;DHT22;251;48.704;9.210;2022-12-17T07:19:38;-4.80;77.90
530;DHT22;251;48.704;9.210;2022-12-17T07:22:22;-4.80;78.10
530;DHT22;251;48.704;9.210;2022-12-17T07:25:08;-4.80;77.30
530;DHT22;251;48.704;9.210;2022-12-17T07:27:52;-4.90;77.20
530;DHT22;251;48.704;9.210;2022-12-17T07:30:37;-4.90;76.60
530;DHT22;251;48.704;9.210;2022-12-17T07:33:21;-4.50;77.30
530;DHT22;251;48.704;9.210;2022-12-17T07:36:17;-4.80;76.80
530;DHT22;251;48.704;9.210;2022-12-17T07:39:01;-4.90;76.80
530;DHT22;251;48.704;9.210;2022-12-17T07:41:46;-4.80;76.00
530;DHT22;251;48.704;9.210;2022-12-17T07:44:30;-4.60;76.20
530;DHT22;251;48.704;9.210;2022-12-17T07:47:15;-4.50;75.80
530;DHT22;251;48.704;9.210;2022-12-17T07:49:59;-4.90;76.10
530;DHT22;251;48.704;9.210;2022-12-17T07:52:43;-4.90;75.40
530;DHT22;251;48.704;9.210;2022-12-17T07:55:28;-4.60;75.50
530;DHT22;251;48.704;9.210;2022-12-17T07:58:13;-4.50;75.50
530;DHT22;251;48.704;9.210;2022-12-17T08:00:59;-4.70;75.50
530;DHT22;251;48.704;9.210;2022-12-17T08:03:52;-4.50;76.00
530;DHT22;251;48.704;9.210;2022-12-17T08:06:36;-4.60;76.10
530;DHT22;251;48.704;9.210;2022-12-17T08:09:20;-4.50;76.40
530;DHT22;251;48.704;9.210;2022-12-17T08:12:05;-4.50;76.50
530;DHT22;251;48.704;9.210;2022-12-17T08:14:51;-4.60;76.50
530;DHT22;251;48.704;9.210;2022-12-17T08:17:35;-4.60;76.00
530;DHT22;251;48.704;9.210;2022-12-17T08:20:20;-4.60;76.00
530;DHT22;251;48.704;9.210;2022-12-17T08:23:04;-4.70;75.40
530;DHT22;251;48.704;9.210;2022-12-17T08:25:49;-4.40;75.30
530;DHT22;251;48.704;9.210;2022-12-17T08:28:33;-4.40;75.30
530;DHT22;251;48.704;9.210;2022-12-17T08:31:19;-4.30;74.90
530;DHT22;251;48.704;9.210;2022-12-17T08:34:03;-4.40;74.60
530;DHT22;251;48.704;9.210;2022-12-17T08:36:48;-4.60;74.40
530;DHT22;251;48.704;9.210;2022-12-17T08:39:32;-4.60;74.10
530;DHT22;251;48.704;9.210;2022-12-17T08:42:17;-4.70;73.30
530;DHT22;251;48.704;9.210;2022-12-17T08:45:01;-4.60;73.20
530;DHT22;251;48.704;9.210;2022-12-17T08:47:47;-4.70;73.40
530;DHT22;251;48.704;9.210;2022-12-17T08:50:31;-4.60;73.50
530;DHT22;251;48.704;9.210;2022-12-17T08:53:16;-4.50;73.40
530;DHT22;251;48.704;9.210;2022-12-17T08:56:00;-4.40;73.90
530;DHT22;251;48.704;9.210;2022-12-17T08:58:45;-4.40;73.90
530;DHT22;251;48.704;9.210;2022-12-17T09:01:38;-4.50;74.30
530;DHT22;251;48.704;9.210;2022-12-17T09:04:23;-4.30;73.80
530;DHT22;251;48.704;9.210;2022-12-17T09:07:08;-4.30;74.40
530;DHT22;251;48.704;9.210;2022-12-17T09:09:52;-4.30;73.80
530;DHT22;251;48.704;9.210;2022-12-17T09:12:36;-4.60;72.80
530;DHT22;251;48.704;9.210;2022-12-17T09:15:21;-4.40;72.90
530;DHT22;251;48.704;9.210;2022-12-17T09:18:05;-4.60;72.50
530;DHT22;251;48.704;9.210;2022-12-17T09:20:52;-4.30;73.10
530;DHT22;251;48.704;9.210;2022-12-17T09:23:37;-4.50;73.00
530;DHT22;251;48.704;9.210;2022-12-17T09:26:21;-4.50;73.10
530;DHT22;251;48.704;9.210;2022-12-17T09:29:05;-4.30;73.50
530;DHT22;251;48.704;9.210;2022-12-17T09:31:50;-4.40;73.40
530;DHT22;251;48.704;9.210;2022-12-17T09:34:34;-4.50;73.40
530;DHT22;251;48.704;9.210;2022-12-17T09:37:20;-4.40;72.50
530;DHT22;251;48.704;9.210;2022-12-17T09:40:05;-4.40;73.00
530;DHT22;251;48.704;9.210;2022-12-17T09:42:54;-4.40;72.50
530;DHT22;251;48.704;9.210;2022-12-17T09:45:43;-4.40;72.20
530;DHT22;251;48.704;9.210;2022-12-17T09:48:36;-4.60;72.90
530;DHT22;251;48.704;9.210;2022-12-17T09:51:26;-4.40;73.40
530;DHT22;251;48.704;9.210;2022-12-17T09:54:18;-4.50;73.20
530;DHT22;251;48.704;9.210;2022-12-17T09:57:03;-4.50;73.90
530;DHT22;251;48.704;9.210;2022-12-17T09:59:49;-4.60;73.60
530;DHT22;251;48.704;9.210;2022-12-17T10:02:38;-4.20;74.00
530;DHT22;251;48.704;9.210;2022-12-17T10:05:25;-4.20;74.50
530;DHT22;251;48.704;9.210;2022-12-17T10:08:15;-4.40;74.10
530;DHT22;251;48.704;9.210;2022-12-17T10:11:18;-4.20;74.20
530;DHT22;251;48.704;9.210;2022-12-17T10:14:13;-4.20;73.40
530;DHT22;251;48.704;9.210;2022-12-17T10:16:58;-4.30;72.80
530;DHT22;251;48.704;9.210;2022-12-17T10:19:42;-4.20;73.20
530;DHT22;251;48.704;9.210;2022-12-17T10:22:27;-4.20;73.60
530;DHT22;251;48.704;9.210;2022-12-17T10:25:15;-4.10;74.10
530;DHT22;251;48.704;9.210;2022-12-17T10:28:07;-4.20;74.20
530;DHT22;251;48.704;9.210;2022-12-17T10:30:53;-4.30;74.00
530;DHT22;251;48.704;9.210;2022-12-17T10:33:38;-4.30;73.80
530;DHT22;251;48.704;9.210;2022-12-17T10:36:24;-4.50;72.90
530;DHT22;251;48.704;9.210;2022-12-17T10:39:15;-4.30;71.90
530;DHT22;251;48.704;9.210;2022-12-17T10:42:00;-4.20;72.10
530;DHT22;251;48.704;9.210;2022-12-17T10:44:45;-4.40;71.60
530;DHT22;251;48.704;9.210;2022-12-17T10:47:32;-4.30;71.10
530;DHT22;251;48.704;9.210;2022-12-17T10:50:18;-4.10;70.80
530;DHT22;251;48.704;9.210;2022-12-17T10:53:15;-4.40;70.70
530;DHT22;251;48.704;9.210;2022-12-17T10:56:00;-4.20;71.40
530;DHT22;251;48.704;9.210;2022-12-17T10:58:46;-4.30;71.20
530;DHT22;251;48.704;9.210;2022-12-17T11:01:33;-4.40;71.10
530;DHT22;251;48.704;9.210;2022-12-17T11:04:23;-4.20;72.20
530;DHT22;251;48.704;9.210;2022-12-17T11:07:11;-4.20;72.20
530;DHT22;251;48.704;9.210;2022-12-17T11:10:00;-4.00;72.20
530;DHT22;251;48.704;9.210;2022-12-17T11:12:47;-4.30;71.20
530;DHT22;251;48.704;9.210;2022-12-17T11:15:37;-4.40;71.50
530;DHT22;251;48.704;9.210;2022-12-17T11:18:28;-4.50;71.30
530;DHT22;251;48.704;9.210;2022-12-17T11:21:19;-4.20;72.70
530;DHT22;251;48.704;9.210;2022-12-17T11:24:07;-3.90;72.60
530;DHT22;251;48.704;9.210;2022-12-17T11:26:55;-4.10;72.20
530;DHT22;251;48.704;9.210;2022-12-17T11:29:42;-4.00;71.70
530;DHT22;251;48.704;9.210;2022-12-17T11:35:51;-4.10;70.00
530;DHT22;251;48.704;9.210;2022-12-17T11:38:38;-4.30;70.30
530;DHT22;251;48.704;9.210;2022-12-17T11:41:33;-4.10;70.60
530;DHT22;251;48.704;9.210;2022-12-17T11:44:30;-4.10;70.90
530;DHT22;251;48.704;9.210;2022-12-17T11:47:24;-4.10;71.00
530;DHT22;251;48.704;9.210;2022-12-17T11:50:19;-4.10;70.90
530;DHT22;251;48.704;9.210;2022-12-17T11:53:17;-4.00;70.80
530;DHT22;251;48.704;9.210;2022-12-17T11:56:13;-4.10;70.70
530;DHT22;251;48.704;9.210;2022-12-17T11:59:04;-4.20;70.10
530;DHT22;251;48.704;9.210;2022-12-17T12:01:58;-4.30;70.40
530;DHT22;251;48.704;9.210;2022-12-17T12:05:01;-4.10;70.70
530;DHT22;251;48.704;9.210;2022-12-17T12:07:56;-4.10;70.10
530;DHT22;251;48.704;9.210;2022-12-17T12:10:49;-4.10;69.60
530;DHT22;251;48.704;9.210;2022-12-17T12:13:41;-4.00;69.70
530;DHT22;251;48.704;9.210;2022-12-17T12:16:32;-4.10;68.90
530;DHT22;251;48.704;9.210;2022-12-17T12:19:25;-4.00;68.70
530;DHT22;251;48.704;9.210;2022-12-17T12:22:17;-4.20;69.10
530;DHT22;251;48.704;9.210;2022-12-17T12:25:24;-4.00;69.60
530;DHT22;251;48.704;9.210;2022-12-17T12:28:21;-4.00;68.80
530;DHT22;251;48.704;9.210;2022-12-17T12:31:15;-4.00;69.50
530;DHT22;251;48.704;9.210;2022-12-17T12:34:09;-4.10;68.60
530;DHT22;251;48.704;9.210;2022-12-17T12:36:55;-4.20;67.20
530;DHT22;251;48.704;9.210;2022-12-17T12:39:47;-4.30;67.70
530;DHT22;251;48.704;9.210;2022-12-17T12:42:37;-4.10;68.10
530;DHT22;251;48.704;9.210;2022-12-17T12:45:32;-4.10;67.40
530;DHT22;251;48.704;9.210;2022-12-17T12:48:29;-4.10;67.10
530;DHT22;251;48.704;9.210;2022-12-17T12:51:19;-3.90;67.70
530;DHT22;251;48.704;9.210;2022-12-17T12:54:25;-4.30;67.90
530;DHT22;251;48.704;9.210;2022-12-17T12:57:27;-4.40;65.70
530;DHT22;251;48.704;9.210;2022-12-17T13:00:32;-4.40;65.90
530;DHT22;251;48.704;9.210;2022-12-17T13:03:24;-4.20;67.00
530;DHT22;251;48.704;9.210;2022-12-17T13:06:10;-4.30;67.90
530;DHT22;251;48.704;9.210;2022-12-17T13:08:37;-4.50;66.30
530;DHT22;251;48.704;9.210;2022-12-17T13:11:26;-4.40;66.40
530;DHT22;251;48.704;9.210;2022-12-17T13:13:59;-4.20;66.60
530;DHT22;251;48.704;9.210;2022-12-17T13:16:40;-4.20;66.10
530;DHT22;251;48.704;9.210;2022-12-17T13:19:20;-4.40;65.70
530;DHT22;251;48.704;9.210;2022-12-17T13:21:48;-4.60;65.80
530;DHT22;251;48.704;9.210;2022-12-17T13:24:23;-4.40;66.70
530;DHT22;251;48.704;9.210;2022-12-17T13:26:51;-4.50;66.90
530;DHT22;251;48.704;9.210;2022-12-17T13:29:23;-4.50;67.60
530;DHT22;251;48.704;9.210;2022-12-17T13:32:14;-4.50;68.10
530;DHT22;251;48.704;9.210;2022-12-17T13:34:52;-4.50;68.30
530;DHT22;251;48.704;9.210;2022-12-17T13:37:29;-4.50;68.00
530;DHT22;251;48.704;9.210;2022-12-17T13:40:08;-4.30;69.00
530;DHT22;251;48.704;9.210;2022-12-17T13:42:38;-4.20;69.30
530;DHT22;251;48.704;9.210;2022-12-17T13:45:06;-4.20;69.20
530;DHT22;251;48.704;9.210;2022-12-17T13:47:34;-4.20;68.80
530;DHT22;251;48.704;9.210;2022-12-17T13:50:18;-4.20;69.10
530;DHT22;251;48.704;9.210;2022-12-17T13:52:46;-4.40;69.00
530;DHT22;251;48.704;9.210;2022-12-17T13:55:18;-4.40;68.60
530;DHT22;251;48.704;9.210;2022-12-17T13:57:47;-4.50;68.90
530;DHT22;251;48.704;9.210;2022-12-17T14:00:20;-4.40;69.00
530;DHT22;251;48.704;9.210;2022-12-17T14:02:49;-4.30;68.90
530;DHT22;251;48.704;9.210;2022-12-17T14:05:23;-4.50;69.10
530;DHT22;251;48.704;9.210;2022-12-17T14:07:50;-4.50;69.20
530;DHT22;251;48.704;9.210;2022-12-17T14:10:18;-4.50;68.70
530;DHT22;251;48.704;9.210;2022-12-17T14:12:45;-4.50;67.50
530;DHT22;251;48.704;9.210;2022-12-17T14:15:20;-4.40;68.10
530;DHT22;251;48.704;9.210;2022-12-17T14:17:49;-4.60;68.50
530;DHT22;251;48.704;9.210;2022-12-17T14:20:18;-4.70;68.10
530;DHT22;251;48.704;9.210;2022-12-17T14:22:49;-4.70;67.30
530;DHT22;251;48.704;9.210;2022-12-17T14:25:18;-4.50;67.10
530;DHT22;251;48.704;9.210;2022-12-17T14:27:51;-4.80;67.70
530;DHT22;251;48.704;9.210;2022-12-17T14:30:22;-4.60;68.00
530;DHT22;251;48.704;9.210;2022-12-17T14:32:50;-4.70;68.80
530;DHT22;251;48.704;9.210;2022-12-17T14:35:22;-4.80;67.90
530;DHT22;251;48.704;9.210;2022-12-17T14:37:49;-4.70;67.60
530;DHT22;251;48.704;9.210;2022-12-17T14:40:17;-4.80;68.10
530;DHT22;251;48.704;9.210;2022-12-17T14:42:44;-4.80;68.40
530;DHT22;251;48.704;9.210;2022-12-17T14:45:22;-4.80;68.60
530;DHT22;251;48.704;9.210;2022-12-17T14:47:55;-4.90;68.10
530;DHT22;251;48.704;9.210;2022-12-17T14:50:26;-4.90;68.40
530;DHT22;251;48.704;9.210;2022-12-17T14:52:54;-4.90;69.10
530;DHT22;251;48.704;9.210;2022-12-17T14:55:24;-4.90;70.00
530;DHT22;251;48.704;9.210;2022-12-17T14:57:52;-5.00;69.80
530;DHT22;251;48.704;9.210;2022-12-17T15:00:20;-5.00;70.90
530;DHT22;251;48.704;9.210;2022-12-17T15:02:51;-4.90;71.50
530;DHT22;251;48.704;9.210;2022-12-17T15:05:21;-4.90;72.10
530;DHT22;251;48.704;9.210;2022-12-17T15:07:47;-4.90;71.70
530;DHT22;251;48.704;9.210;2022-12-17T15:10:19;-4.90;70.90
530;DHT22;251;48.704;9.210;2022-12-17T15:12:46;-4.80;70.20
530;DHT22;251;48.704;9.210;2022-12-17T15:15:16;-4.70;70.80
530;DHT22;251;48.704;9.210;2022-12-17T15:17:43;-4.80;71.30
530;DHT22;251;48.704;9.210;2022-12-17T15:20:15;-4.80;71.50
530;DHT22;251;48.704;9.210;2022-12-17T15:22:43;-4.80;71.80
530;DHT22;251;48.704;9.210;2022-12-17T15:25:12;-4.90;71.00
530;DHT22;251;48.704;9.210;2022-12-17T15:27:39;-4.90;70.90
530;DHT22;251;48.704;9.210;2022-12-17T15:30:08;-4.80;71.70
530;DHT22;251;48.704;9.210;2022-12-17T15:32:35;-5.00;71.00
530;DHT22;251;48.704;9.210;2022-12-17T15:35:02;-4.90;71.10
530;DHT22;251;48.704;9.210;2022-12-17T15:37:29;-4.90;71.20
530;DHT22;251;48.704;9.210;2022-12-17T15:39:57;-4.90;71.00
530;DHT22;251;48.704;9.210;2022-12-17T15:42:24;-5.20;70.40
530;DHT22;251;48.704;9.210;2022-12-17T15:45:09;-5.10;70.60
530;DHT22;251;48.704;9.210;2022-12-17T15:47:35;-5.00;70.70
530;DHT22;251;48.704;9.210;2022-12-17T15:50:03;-4.90;71.50
530;DHT22;251;48.704;9.210;2022-12-17T15:52:30;-5.10;71.50
530;DHT22;251;48.704;9.210;2022-12-17T15:54:58;-5.10;71.30
530;DHT22;251;48.704;9.210;2022-12-17T15:57:25;-5.00;71.60
530;DHT22;251;48.704;9.210;2022-12-17T15:59:52;-4.90;71.40
530;DHT22;251;48.704;9.210;2022-12-17T16:02:19;-4.90;71.00
530;DHT22;251;48.704;9.210;2022-12-17T16:04:46;-4.90;70.60
530;DHT22;251;48.704;9.210;2022-12-17T16:07:12;-4.90;70.90
530;DHT22;251;48.704;9.210;2022-12-17T16:09:40;-4.90;70.70
530;DHT22;251;48.704;9.210;2022-12-17T16:12:09;-4.90;70.80
530;DHT22;251;48.704;9.210;2022-12-17T16:14:37;-4.90;71.00
530;DHT22;251;48.704;9.210;2022-12-17T16:17:04;-4.90;70.00
530;DHT22;251;48.704;9.210;2022-12-17T16:19:30;-5.20;69.70
530;DHT22;251;48.704;9.210;2022-12-17T16:21:57;-5.40;69.40
530;DHT22;251;48.704;9.210;2022-12-17T16:24:24;-5.30;69.90
530;DHT22;251;48.704;9.210;2022-12-17T16:26:51;-5.20;70.40
530;DHT22;251;48.704;9.210;2022-12-17T16:29:19;-5.30;71.20
530;DHT22;251;48.704;9.210;2022-12-17T16:31:48;-5.00;71.70
530;DHT22;251;48.704;9.210;2022-12-17T16:34:15;-5.30;72.30
530;DHT22;251;48.704;9.210;2022-12-17T16:36:42;-4.90;72.30
530;DHT22;251;48.704;9.210;2022-12-17T16:39:13;-4.90;71.80
530;DHT22;251;48.704;9.210;2022-12-17T16:41:41;-5.30;71.00
530;DHT22;251;48.704;9.210;2022-12-17T16:44:07;-5.20;71.30
530;DHT22;251;48.704;9.210;2022-12-17T16:46:37;-5.10;72.00
530;DHT22;251;48.704;9.210;2022-12-17T16:49:06;-5.30;72.10
530;DHT22;251;48.704;9.210;2022-12-17T16:51:33;-5.30;72.30
530;DHT22;251;48.704;9.210;2022-12-17T16:54:03;-5.40;72.50
530;DHT22;251;48.704;9.210;2022-12-17T16:56:33;-5.10;71.40
530;DHT22;251;48.704;9.210;2022-12-17T16:59:01;-5.20;71.20
530;DHT22;251;48.704;9.210;2022-12-17T17:01:29;-5.10;71.80
530;DHT22;251;48.704;9.210;2022-12-17T17:03:57;-5.10;71.80
530;DHT22;251;48.704;9.210;2022-12-17T17:06:24;-5.10;71.90
530;DHT22;251;48.704;9.210;2022-12-17T17:08:51;-5.10;72.80
530;DHT22;251;48.704;9.210;2022-12-17T17:11:20;-5.40;73.10
530;DHT22;251;48.704;9.210;2022-12-17T17:13:47;-5.20;72.20
530;DHT22;251;48.704;9.210;2022-12-17T17:16:16;-5.10;71.40
530;DHT22;251;48.704;9.210;2022-12-17T17:18:43;-5.30;72.20
530;DHT22;251;48.704;9.210;2022-12-17T17:21:23;-5.60;72.50
530;DHT22;251;48.704;9.210;2022-12-17T17:23:52;-5.10;72.80
530;DHT22;251;48.704;9.210;2022-12-17T17:26:19;-5.10;73.00
530;DHT22;251;48.704;9.210;2022-12-17T17:28:47;-5.20;72.60
530;DHT22;251;48.704;9.210;2022-12-17T17:31:15;-5.10;73.50
530;DHT22;251;48.704;9.210;2022-12-17T17:33:44;-5.20;73.30
530;DHT22;251;48.704;9.210;2022-12-17T17:36:12;-5.20;73.30
530;DHT22;251;48.704;9.210;2022-12-17T17:38:41;-5.10;73.40
530;DHT22;251;48.704;9.210;2022-12-17T17:41:10;-5.30;73.30
530;DHT22;251;48.704;9.210;2022-12-17T17:43:37;-4.90;73.50
530;DHT22;251;48.704;9.210;2022-12-17T17:46:05;-5.00;73.30
530;DHT22;251;48.704;9.210;2022-12-17T17:48:32;-5.40;72.40
530;DHT22;251;48.704;9.210;2022-12-17T17:51:00;-5.40;71.70
530;DHT22;251;48.704;9.210;2022-12-17T17:53:28;-4.90;71.80
530;DHT22;251;48.704;9.210;2022-12-17T17:56:01;-5.30;71.40
530;DHT22;251;48.704;9.210;2022-12-17T17:58:29;-5.30;71.30
530;DHT22;251;48.704;9.210;2022-12-17T18:00:55;-5.00;71.70
530;DHT22;251;48.704;9.210;2022-12-17T18:03:22;-5.30;71.50
530;DHT22;251;48.704;9.210;2022-12-17T18:05:49;-5.40;71.50
530;DHT22;251;48.704;9.210;2022-12-17T18:08:16;-5.40;71.30
530;DHT22;251;48.704;9.210;2022-12-17T18:10:54;-5.20;71.70
530;DHT22;251;48.704;9.210;2022-12-17T18:13:22;-5.10;71.20